createdAt,value
2017-11-15T00:01:50.108Z,8.91
2017-11-15T00:03:51.844Z,8.88
2017-11-15T00:05:53.290Z,8.89
2017-11-15T00:07:54.723Z,8.90
2017-11-15T00:09:56.460Z,8.90
2017-11-15T00:11:58.045Z,8.89
2017-11-15T00:14:00.319Z,8.88
2017-11-15T00:16:01.626Z,8.89
2017-11-15T00:18:03.315Z,8.92
2017-11-15T00:20:04.751Z,8.88
2017-11-15T00:22:06.665Z,8.89
2017-11-15T00:24:07.904Z,8.90
2017-11-15T00:26:09.519Z,8.90
2017-11-15T00:28:10.990Z,8.89
2017-11-15T00:30:12.366Z,8.91
2017-11-15T00:32:13.879Z,8.91
2017-11-15T00:34:15.427Z,8.92
2017-11-15T00:36:16.768Z,8.92
2017-11-15T00:38:18.335Z,8.92
2017-11-15T00:40:19.643Z,8.93
2017-11-15T00:42:21.031Z,8.92
2017-11-15T00:44:22.684Z,8.91
2017-11-15T00:46:24.234Z,8.93
2017-11-15T00:48:25.667Z,8.92
2017-11-15T00:50:27.443Z,8.94
2017-11-15T00:52:28.998Z,8.94
2017-11-15T00:54:30.331Z,8.95
2017-11-15T00:56:31.767Z,8.95
2017-11-15T00:58:33.098Z,8.95
2017-11-15T01:00:34.678Z,8.96
2017-11-15T01:02:35.949Z,8.94
2017-11-15T01:04:37.593Z,8.94
2017-11-15T01:06:39.546Z,8.95
2017-11-15T01:08:41.207Z,8.95
2017-11-15T01:10:42.488Z,8.95
2017-11-15T01:12:43.793Z,8.97
2017-11-15T01:14:45.460Z,8.99
2017-11-15T01:16:47.410Z,8.99
2017-11-15T01:18:48.852Z,8.97
2017-11-15T01:20:50.193Z,8.99
2017-11-15T01:22:51.503Z,8.99
2017-11-15T01:24:53.609Z,8.99
2017-11-15T01:26:55.262Z,9.00
2017-11-15T01:28:56.718Z,9.01
2017-11-15T01:30:57.999Z,9.02
2017-11-15T01:32:59.323Z,9.01
2017-11-15T01:35:00.650Z,8.96
2017-11-15T01:37:02.106Z,9.01
2017-11-15T01:39:03.563Z,9.01
2017-11-15T01:41:05.000Z,9.02
2017-11-15T01:43:06.353Z,9.02
2017-11-15T01:45:07.716Z,9.02
2017-11-15T01:47:09.151Z,9.02
2017-11-15T01:49:10.634Z,9.03
2017-11-15T01:51:12.252Z,9.03
2017-11-15T01:53:14.623Z,9.01
2017-11-15T01:55:15.888Z,9.03
2017-11-15T01:57:17.531Z,9.02
2017-11-15T01:59:18.976Z,9.03
2017-11-15T02:01:20.448Z,9.01
2017-11-15T02:03:21.767Z,9.02
2017-11-15T02:05:23.203Z,9.02
2017-11-15T02:07:24.569Z,9.03
2017-11-15T02:09:26.021Z,9.03
2017-11-15T02:11:27.334Z,9.03
2017-11-15T02:13:29.021Z,9.03
2017-11-15T02:15:30.373Z,9.03
2017-11-15T02:17:31.788Z,9.02
2017-11-15T02:19:33.174Z,9.04
2017-11-15T02:21:34.419Z,9.03
2017-11-15T02:23:35.860Z,9.04
2017-11-15T02:25:37.224Z,9.06
2017-11-15T02:27:38.869Z,9.04
2017-11-15T02:29:40.447Z,9.04
2017-11-15T02:31:42.599Z,9.02
2017-11-15T02:33:44.764Z,9.03
2017-11-15T02:35:46.050Z,9.03
2017-11-15T02:37:48.257Z,9.03
2017-11-15T02:39:49.598Z,9.03
2017-11-15T02:41:51.069Z,9.04
2017-11-15T02:43:53.432Z,9.05
2017-11-15T02:45:54.889Z,9.03
2017-11-15T02:47:56.400Z,9.05
2017-11-15T02:49:57.775Z,9.05
2017-11-15T02:51:59.371Z,9.04
2017-11-15T02:54:00.716Z,9.05
2017-11-15T02:56:02.240Z,9.04
2017-11-15T02:58:03.576Z,9.05
2017-11-15T03:00:04.925Z,9.04
2017-11-15T03:02:06.384Z,9.03
2017-11-15T03:04:07.827Z,9.04
2017-11-15T03:06:09.169Z,9.05
2017-11-15T03:08:10.436Z,9.04
2017-11-15T03:10:11.882Z,9.04
2017-11-15T03:12:13.180Z,9.05
2017-11-15T03:14:14.772Z,9.04
2017-11-15T03:16:16.217Z,9.06
2017-11-15T03:18:17.760Z,9.06
2017-11-15T03:20:19.034Z,9.05
2017-11-15T03:22:20.672Z,9.05
2017-11-15T03:24:21.991Z,9.05
2017-11-15T03:26:23.372Z,9.05
2017-11-15T03:28:24.707Z,9.06
2017-11-15T03:30:26.271Z,9.05
2017-11-15T03:32:27.612Z,9.07
2017-11-15T03:34:28.858Z,9.07
2017-11-15T03:36:30.099Z,9.06
2017-11-15T03:38:31.562Z,9.06
2017-11-15T03:40:33.095Z,9.06
2017-11-15T03:42:34.632Z,9.05
2017-11-15T03:44:37.036Z,9.07
2017-11-15T03:46:38.416Z,9.06
2017-11-15T03:48:39.820Z,9.06
2017-11-15T03:50:41.395Z,9.05
2017-11-15T03:52:42.622Z,9.06
2017-11-15T03:54:44.177Z,9.07
2017-11-15T03:56:45.619Z,9.07
2017-11-15T03:58:47.079Z,9.08
2017-11-15T04:00:48.611Z,9.08
2017-11-15T04:02:49.909Z,9.05
2017-11-15T04:04:51.233Z,9.06
2017-11-15T04:06:52.523Z,9.07
2017-11-15T04:08:53.917Z,9.08
2017-11-15T04:10:55.280Z,9.07
2017-11-15T04:12:56.542Z,9.06
2017-11-15T04:14:58.269Z,9.06
2017-11-15T04:16:59.610Z,9.07
2017-11-15T04:19:01.164Z,9.08
2017-11-15T04:21:02.621Z,9.07
2017-11-15T04:23:04.156Z,9.06
2017-11-15T04:25:05.712Z,9.08
2017-11-15T04:27:07.796Z,9.07
2017-11-15T04:29:09.129Z,9.06
2017-11-15T04:31:10.418Z,9.07
2017-11-15T04:33:12.128Z,9.08
2017-11-15T04:35:13.590Z,9.08
2017-11-15T04:37:15.131Z,9.09
2017-11-15T04:39:16.398Z,9.09
2017-11-15T04:41:19.463Z,9.08
2017-11-15T04:43:20.891Z,9.09
2017-11-15T04:45:22.357Z,9.11
2017-11-15T04:47:23.697Z,9.12
2017-11-15T04:49:25.256Z,9.12
2017-11-15T04:51:26.611Z,9.13
2017-11-15T04:53:28.073Z,9.11
2017-11-15T04:55:29.743Z,9.13
2017-11-15T04:57:31.609Z,9.13
2017-11-15T04:59:33.130Z,9.13
2017-11-15T05:01:34.472Z,9.14
2017-11-15T05:03:35.807Z,9.11
2017-11-15T05:05:37.268Z,9.12
2017-11-15T05:07:38.837Z,9.12
2017-11-15T05:09:40.155Z,9.14
2017-11-15T05:11:41.600Z,9.13
2017-11-15T05:13:43.056Z,9.14
2017-11-15T05:15:44.455Z,9.15
2017-11-15T05:17:45.984Z,9.14
2017-11-15T05:19:47.402Z,9.12
2017-11-15T05:21:48.705Z,9.11
2017-11-15T05:23:50.106Z,9.13
2017-11-15T05:25:51.560Z,9.15
2017-11-15T05:27:53.017Z,9.15
2017-11-15T05:29:54.568Z,9.14
2017-11-15T05:31:56.117Z,9.15
2017-11-15T05:33:57.655Z,9.13
2017-11-15T05:35:59.223Z,9.12
2017-11-15T05:38:00.766Z,9.14
2017-11-15T05:40:02.112Z,9.15
2017-11-15T05:42:03.459Z,9.15
2017-11-15T05:44:04.887Z,9.15
2017-11-15T05:46:06.281Z,9.14
2017-11-15T05:48:07.601Z,9.15
2017-11-15T05:50:08.905Z,9.14
2017-11-15T05:52:10.606Z,9.14
2017-11-15T05:54:11.960Z,9.14
2017-11-15T05:56:13.526Z,9.15
2017-11-15T05:58:15.177Z,9.14
2017-11-15T06:00:16.729Z,9.13
2017-11-15T06:02:18.285Z,9.14
2017-11-15T06:04:19.852Z,9.15
2017-11-15T06:06:21.392Z,9.12
2017-11-15T06:08:23.138Z,9.13
2017-11-15T06:10:24.660Z,9.12
2017-11-15T06:12:26.266Z,9.14
2017-11-15T06:14:27.834Z,9.14
2017-11-15T06:16:29.789Z,9.14
2017-11-15T06:18:31.427Z,9.15
2017-11-15T06:20:33.066Z,9.14
2017-11-15T06:22:34.560Z,9.14
2017-11-15T06:24:36.202Z,9.14
2017-11-15T06:26:38.070Z,9.13
2017-11-15T06:28:40.332Z,9.12
2017-11-15T06:30:42.023Z,9.14
2017-11-15T06:32:43.842Z,9.13
2017-11-15T06:34:45.473Z,9.15
2017-11-15T06:36:47.048Z,9.14
2017-11-15T06:38:48.665Z,9.14
2017-11-15T06:40:50.333Z,9.14
2017-11-15T06:42:52.185Z,9.15
2017-11-15T06:44:53.743Z,9.15
2017-11-15T06:46:55.403Z,9.14
2017-11-15T06:48:56.967Z,9.14
2017-11-15T06:50:58.595Z,9.15
2017-11-15T06:53:00.469Z,9.15
2017-11-15T06:55:02.221Z,9.15
2017-11-15T06:57:03.760Z,9.15
2017-11-15T06:59:05.331Z,9.15
2017-11-15T07:01:06.977Z,9.15
2017-11-15T07:03:08.630Z,9.13
2017-11-15T07:05:10.174Z,9.16
2017-11-15T07:07:12.547Z,9.15
2017-11-15T07:09:14.110Z,9.15
2017-11-15T07:11:15.764Z,9.16
2017-11-15T07:13:17.441Z,9.16
2017-11-15T07:15:19.169Z,9.15
2017-11-15T07:17:22.576Z,9.16
2017-11-15T07:19:23.895Z,9.17
2017-11-15T07:21:25.148Z,9.17
2017-11-15T07:23:26.796Z,9.17
2017-11-15T07:25:28.285Z,9.17
2017-11-15T07:27:29.906Z,9.18
2017-11-15T07:29:31.445Z,9.18
2017-11-15T07:31:33.109Z,9.21
2017-11-15T07:33:34.759Z,9.20
2017-11-15T07:35:36.315Z,9.18
2017-11-15T07:37:37.979Z,9.19
2017-11-15T07:39:39.616Z,9.21
2017-11-15T07:41:41.184Z,9.18
2017-11-15T07:43:42.737Z,9.19
2017-11-15T07:45:44.384Z,9.19
2017-11-15T07:47:45.936Z,9.19
2017-11-15T07:49:47.465Z,9.20
2017-11-15T07:51:48.950Z,9.20
2017-11-15T07:53:50.469Z,9.22
2017-11-15T07:55:52.832Z,9.23
2017-11-15T07:57:54.302Z,9.20
2017-11-15T07:59:55.940Z,9.22
2017-11-15T08:01:57.510Z,9.21
2017-11-15T08:03:59.153Z,9.23
2017-11-15T08:06:00.580Z,9.22
2017-11-15T08:08:02.159Z,9.23
2017-11-15T08:10:03.699Z,9.24
2017-11-15T08:12:05.260Z,9.22
2017-11-15T08:14:06.904Z,9.23
2017-11-15T08:16:08.460Z,9.22
2017-11-15T08:18:09.906Z,9.21
2017-11-15T08:20:11.355Z,9.23
2017-11-15T08:22:13.009Z,9.23
2017-11-15T08:24:14.656Z,9.23
2017-11-15T08:26:16.313Z,9.23
2017-11-15T08:28:17.756Z,9.25
2017-11-15T08:30:19.417Z,9.26
2017-11-15T08:32:20.828Z,9.24
2017-11-15T08:34:22.514Z,9.24
2017-11-15T08:36:24.100Z,9.23
2017-11-15T08:38:25.913Z,9.23
2017-11-15T08:40:27.459Z,9.23
2017-11-15T08:42:29.023Z,9.23
2017-11-15T08:44:30.463Z,9.24
2017-11-15T08:46:32.158Z,9.25
2017-11-15T08:48:33.781Z,9.25
2017-11-15T08:50:37.548Z,9.26
2017-11-15T08:52:38.883Z,9.26
2017-11-15T08:54:40.370Z,9.26
2017-11-15T08:56:41.834Z,9.25
2017-11-15T08:58:43.370Z,9.27
2017-11-15T09:00:45.635Z,9.26
2017-11-15T09:02:47.198Z,9.25
2017-11-15T09:04:48.730Z,9.25
2017-11-15T09:06:50.279Z,9.23
2017-11-15T09:08:51.837Z,9.25
2017-11-15T09:10:53.285Z,9.25
2017-11-15T09:12:55.761Z,9.24
2017-11-15T09:14:57.211Z,9.24
2017-11-15T09:16:58.767Z,9.24
2017-11-15T09:19:00.314Z,9.24
2017-11-15T09:21:01.968Z,9.24
2017-11-15T09:23:03.561Z,9.25
2017-11-15T09:25:04.946Z,9.27
2017-11-15T09:27:06.520Z,9.26
2017-11-15T09:29:08.046Z,9.26
2017-11-15T09:31:09.711Z,9.27
2017-11-15T09:33:11.039Z,9.26
2017-11-15T09:35:12.377Z,9.26
2017-11-15T09:37:14.152Z,9.28
2017-11-15T09:39:15.698Z,9.28
2017-11-15T09:41:17.159Z,9.29
2017-11-15T09:43:18.816Z,9.30
2017-11-15T09:45:20.356Z,9.32
2017-11-15T09:47:21.909Z,9.34
2017-11-15T09:49:27.254Z,9.38
2017-11-15T09:51:28.544Z,9.34
2017-11-15T09:53:30.750Z,9.35
2017-11-15T09:55:32.104Z,9.37
2017-11-15T09:57:33.652Z,9.38
2017-11-15T09:59:35.317Z,9.38
2017-11-15T10:01:36.758Z,9.38
2017-11-15T10:03:38.091Z,9.41
2017-11-15T10:05:39.438Z,9.40
2017-11-15T10:07:40.785Z,9.40
2017-11-15T10:09:42.343Z,9.41
2017-11-15T10:11:43.783Z,9.42
2017-11-15T10:13:45.217Z,9.42
2017-11-15T10:15:46.801Z,9.44
2017-11-15T10:17:48.236Z,9.44
2017-11-15T10:19:49.784Z,9.44
2017-11-15T10:21:51.429Z,9.42
2017-11-15T10:23:53.078Z,9.45
2017-11-15T10:25:54.655Z,9.46
2017-11-15T10:27:56.306Z,9.46
2017-11-15T10:29:57.945Z,9.46
2017-11-15T10:32:00.317Z,9.47
2017-11-15T10:34:01.649Z,9.48
2017-11-15T10:36:03.113Z,9.48
2017-11-15T10:38:04.767Z,9.48
2017-11-15T10:40:06.208Z,9.48
2017-11-15T10:42:07.671Z,9.49
2017-11-15T10:44:09.427Z,9.45
2017-11-15T10:46:10.980Z,9.46
2017-11-15T10:48:12.703Z,9.49
2017-11-15T10:50:14.380Z,9.48
2017-11-15T10:52:16.029Z,9.47
2017-11-15T10:54:17.701Z,9.48
2017-11-15T10:56:19.331Z,9.48
2017-11-15T10:58:20.790Z,9.47
2017-11-15T11:00:22.332Z,9.50
2017-11-15T11:02:23.882Z,9.49
2017-11-15T11:04:25.433Z,9.48
2017-11-15T11:06:26.990Z,9.45
2017-11-15T11:08:28.423Z,9.46
2017-11-15T11:10:29.879Z,9.49
2017-11-15T11:12:31.434Z,9.51
2017-11-15T11:14:32.885Z,9.53
2017-11-15T11:16:34.545Z,9.56
2017-11-15T11:18:36.079Z,9.55
2017-11-15T11:20:37.641Z,9.54
2017-11-15T11:22:39.181Z,9.57
2017-11-15T11:24:40.647Z,9.57
2017-11-15T11:26:42.080Z,9.57
2017-11-15T11:28:43.638Z,9.56
2017-11-15T11:30:45.280Z,9.58
2017-11-15T11:32:47.198Z,9.57
2017-11-15T11:34:48.752Z,9.59
2017-11-15T11:36:50.244Z,9.60
2017-11-15T11:38:51.694Z,9.58
2017-11-15T11:40:53.130Z,9.62
2017-11-15T11:42:54.705Z,9.60
2017-11-15T11:44:56.237Z,9.60
2017-11-15T11:46:57.804Z,9.61
2017-11-15T11:48:59.350Z,9.59
2017-11-15T11:51:00.793Z,9.60
2017-11-15T11:53:02.239Z,9.64
2017-11-15T11:55:04.530Z,9.63
2017-11-15T11:57:06.052Z,9.63
2017-11-15T11:59:07.589Z,9.65
2017-11-15T12:01:09.169Z,9.65
2017-11-15T12:03:10.833Z,9.63
2017-11-15T12:05:12.590Z,9.64
2017-11-15T12:07:14.112Z,9.64
2017-11-15T12:09:15.879Z,9.63
2017-11-15T12:11:17.522Z,9.66
2017-11-15T12:13:18.831Z,9.66
2017-11-15T12:15:20.428Z,9.67
2017-11-15T12:17:21.779Z,9.66
2017-11-15T12:19:23.212Z,9.65
2017-11-15T12:21:24.738Z,9.66
2017-11-15T12:23:26.320Z,9.69
2017-11-15T12:25:29.626Z,9.71
2017-11-15T12:27:31.155Z,9.70
2017-11-15T12:29:32.615Z,9.69
2017-11-15T12:31:34.258Z,9.69
2017-11-15T12:33:35.805Z,9.71
2017-11-15T12:35:37.259Z,9.68
2017-11-15T12:37:40.354Z,9.69
2017-11-15T12:39:41.798Z,9.70
2017-11-15T12:41:43.359Z,9.72
2017-11-15T12:43:45.542Z,9.71
2017-11-15T12:45:47.166Z,9.70
2017-11-15T12:47:48.826Z,9.70
2017-11-15T12:49:50.366Z,9.70
2017-11-15T12:51:51.907Z,9.71
2017-11-15T12:53:53.475Z,9.71
2017-11-15T12:55:55.115Z,9.72
2017-11-15T12:57:56.670Z,9.70
2017-11-15T12:59:58.324Z,9.71
2017-11-15T13:01:59.984Z,9.73
2017-11-15T13:04:01.645Z,9.75
2017-11-15T13:06:02.974Z,9.73
2017-11-15T13:08:04.801Z,9.74
2017-11-15T13:10:06.577Z,9.76
2017-11-15T13:12:08.137Z,9.75
2017-11-15T13:14:09.936Z,9.76
2017-11-15T13:16:11.561Z,9.76
2017-11-15T13:18:13.088Z,9.75
2017-11-15T13:20:14.660Z,9.76
2017-11-15T13:22:16.101Z,9.76
2017-11-15T13:24:17.848Z,9.76
2017-11-15T13:26:19.611Z,9.75
2017-11-15T13:28:21.049Z,9.75
2017-11-15T13:30:22.597Z,9.77
2017-11-15T13:32:24.091Z,9.77
2017-11-15T13:34:25.706Z,9.78
2017-11-15T13:36:27.178Z,9.78
2017-11-15T13:38:28.817Z,9.77
2017-11-15T13:40:30.231Z,9.78
2017-11-15T13:42:31.709Z,9.79
2017-11-15T13:44:33.245Z,9.78
2017-11-15T13:46:34.706Z,9.79
2017-11-15T13:48:36.252Z,9.80
2017-11-15T13:50:38.324Z,9.81
2017-11-15T13:52:40.675Z,9.81
2017-11-15T13:54:42.140Z,9.80
2017-11-15T13:56:43.459Z,9.80
2017-11-15T13:58:44.814Z,9.80
2017-11-15T14:00:46.269Z,9.80
2017-11-15T14:02:47.711Z,9.79
2017-11-15T14:04:49.063Z,9.79
2017-11-15T14:06:51.032Z,9.80
2017-11-15T14:08:53.280Z,9.82
2017-11-15T14:10:54.860Z,9.83
2017-11-15T14:12:56.398Z,9.83
2017-11-15T14:14:58.054Z,9.82
2017-11-15T14:17:00.411Z,9.82
2017-11-15T14:19:01.931Z,9.81
2017-11-15T14:21:03.540Z,9.81
2017-11-15T14:23:05.079Z,9.83
2017-11-15T14:25:06.826Z,9.83
2017-11-15T14:27:08.372Z,9.84
2017-11-15T14:29:10.118Z,9.83
2017-11-15T14:31:11.786Z,9.86
2017-11-15T14:33:13.376Z,9.85
2017-11-15T14:35:14.979Z,9.85
2017-11-15T14:37:16.633Z,9.86
2017-11-15T14:39:18.193Z,9.86
2017-11-15T14:41:19.851Z,9.88
2017-11-15T14:43:21.601Z,9.88
2017-11-15T14:45:23.357Z,9.90
2017-11-15T14:47:26.024Z,9.92
2017-11-15T14:49:27.673Z,9.90
2017-11-15T14:51:30.121Z,9.90
2017-11-15T14:53:34.885Z,9.90
2017-11-15T14:55:36.731Z,9.91
2017-11-15T14:57:38.597Z,9.92
2017-11-15T14:59:40.150Z,9.94
2017-11-15T15:01:41.911Z,9.94
2017-11-15T15:03:43.565Z,9.94
2017-11-15T15:05:45.312Z,9.94
2017-11-15T15:07:46.837Z,9.93
2017-11-15T15:09:48.286Z,9.96
2017-11-15T15:11:49.761Z,9.95
2017-11-15T15:13:51.626Z,9.94
2017-11-15T15:15:53.359Z,9.95
2017-11-15T15:17:55.138Z,9.95
2017-11-15T15:19:56.677Z,9.97
2017-11-15T15:21:58.342Z,9.96
2017-11-15T15:23:59.877Z,9.96
2017-11-15T15:26:01.347Z,9.98
2017-11-15T15:28:03.256Z,9.97
2017-11-15T15:30:05.254Z,9.97
2017-11-15T15:32:07.116Z,9.97
2017-11-15T15:34:08.849Z,9.96
2017-11-15T15:36:10.682Z,9.95
2017-11-15T15:38:12.007Z,9.95
2017-11-15T15:40:13.996Z,9.94
2017-11-15T15:42:15.997Z,9.97
2017-11-15T15:44:17.832Z,9.95
2017-11-15T15:46:19.550Z,9.94
2017-11-15T15:48:21.445Z,9.95
2017-11-15T15:50:23.056Z,9.95
2017-11-15T15:52:24.772Z,9.95
2017-11-15T15:54:26.530Z,9.95
2017-11-15T15:56:28.284Z,9.95
2017-11-15T15:58:30.143Z,9.94
2017-11-15T16:00:31.897Z,9.93
2017-11-15T16:02:33.376Z,9.93
2017-11-15T16:04:35.377Z,9.93
2017-11-15T16:06:37.261Z,9.92
2017-11-15T16:08:39.017Z,9.94
2017-11-15T16:10:40.900Z,9.92
2017-11-15T16:12:42.822Z,9.91
2017-11-15T16:14:44.816Z,9.91
2017-11-15T16:16:46.619Z,9.92
2017-11-15T16:18:48.167Z,9.93
2017-11-15T16:20:49.684Z,9.94
2017-11-15T16:22:51.492Z,9.93
2017-11-15T16:24:53.365Z,9.92
2017-11-15T16:26:55.294Z,9.94
2017-11-15T16:28:56.964Z,9.95
2017-11-15T16:30:58.917Z,9.96
2017-11-15T16:33:00.817Z,9.96
2017-11-15T16:35:02.534Z,9.97
2017-11-15T16:37:04.404Z,9.95
2017-11-15T16:39:06.154Z,9.96
2017-11-15T16:41:08.632Z,9.95
2017-11-15T16:43:10.383Z,9.95
2017-11-15T16:45:11.930Z,9.96
2017-11-15T16:47:13.696Z,9.96
2017-11-15T16:49:15.289Z,9.97
2017-11-15T16:51:16.907Z,9.97
2017-11-15T16:53:18.652Z,9.97
2017-11-15T16:55:20.627Z,9.98
2017-11-15T16:57:22.362Z,9.97
2017-11-15T16:59:24.117Z,9.98
2017-11-15T17:01:25.995Z,9.96
2017-11-15T17:03:28.002Z,9.98
2017-11-15T17:05:30.211Z,9.96
2017-11-15T17:07:32.060Z,9.96
2017-11-15T17:09:33.847Z,9.97
2017-11-15T17:11:35.687Z,9.96
2017-11-15T17:13:38.155Z,9.97
2017-11-15T17:15:40.227Z,9.97
2017-11-15T17:17:42.076Z,9.97
2017-11-15T17:19:43.823Z,9.98
2017-11-15T17:21:45.688Z,9.99
2017-11-15T17:23:47.434Z,9.97
2017-11-15T17:25:49.396Z,9.99
2017-11-15T17:27:51.165Z,9.99
2017-11-15T17:29:53.013Z,9.99
2017-11-15T17:31:54.894Z,9.99
2017-11-15T17:33:56.820Z,9.99
2017-11-15T17:35:58.702Z,9.98
2017-11-15T17:38:00.654Z,9.98
2017-11-15T17:40:02.306Z,9.98
2017-11-15T17:42:04.063Z,9.99
2017-11-15T17:44:05.938Z,9.99
2017-11-15T17:46:07.771Z,10.00
2017-11-15T17:48:09.645Z,10.00
2017-11-15T17:50:11.616Z,10.00
2017-11-15T17:52:13.456Z,10.01
2017-11-15T17:54:15.233Z,10.00
2017-11-15T17:56:17.360Z,10.02
2017-11-15T17:58:19.119Z,10.01
2017-11-15T18:00:20.978Z,10.02
2017-11-15T18:02:22.850Z,10.03
2017-11-15T18:04:24.699Z,10.05
2017-11-15T18:06:26.446Z,10.03
2017-11-15T18:08:28.306Z,10.03
2017-11-15T18:10:30.091Z,10.03
2017-11-15T18:12:31.816Z,10.33
2017-11-15T18:14:33.658Z,10.77
2017-11-15T18:16:35.110Z,11.12
2017-11-15T18:18:36.875Z,11.40
2017-11-15T18:20:38.845Z,11.64
2017-11-15T18:22:40.614Z,11.74
2017-11-15T18:24:42.354Z,11.89
2017-11-15T18:26:44.537Z,11.99
2017-11-15T18:28:46.570Z,12.05
2017-11-15T18:30:48.440Z,12.12
2017-11-15T18:32:50.080Z,12.19
2017-11-15T18:34:51.838Z,12.29
2017-11-15T18:36:53.626Z,12.35
2017-11-15T18:38:55.670Z,12.37
2017-11-15T18:40:57.420Z,12.43
2017-11-15T18:42:59.170Z,12.44
2017-11-15T18:45:01.045Z,12.46
2017-11-15T18:47:02.885Z,12.53
2017-11-15T18:49:04.652Z,12.54
2017-11-15T18:51:06.300Z,12.54
2017-11-15T18:53:08.266Z,12.59
2017-11-15T18:55:09.816Z,12.62
2017-11-15T18:57:12.059Z,12.63
2017-11-15T18:59:14.150Z,12.65
2017-11-15T19:01:15.918Z,12.66
2017-11-15T19:03:17.889Z,12.67
2017-11-15T19:05:19.734Z,12.70
2017-11-15T19:07:22.179Z,12.70
2017-11-15T19:09:24.034Z,12.73
2017-11-15T19:11:25.798Z,12.75
2017-11-15T19:13:27.568Z,12.73
2017-11-15T19:15:29.408Z,12.76
2017-11-15T19:17:31.175Z,12.74
2017-11-15T19:19:33.133Z,12.74
2017-11-15T19:21:34.975Z,12.78
2017-11-15T19:23:36.653Z,12.77
2017-11-15T19:25:43.222Z,12.77
2017-11-15T19:27:45.061Z,12.77
2017-11-15T19:29:46.822Z,12.77
2017-11-15T19:31:48.582Z,12.76
2017-11-15T19:33:50.431Z,12.78
2017-11-15T19:35:52.207Z,12.76
2017-11-15T19:37:54.040Z,12.79
2017-11-15T19:39:55.812Z,12.79
2017-11-15T19:41:57.564Z,12.75
2017-11-15T19:43:59.319Z,12.77
2017-11-15T19:46:00.961Z,12.76
2017-11-15T19:48:02.740Z,12.76
2017-11-15T19:50:04.397Z,12.73
2017-11-15T19:52:06.224Z,12.74
2017-11-15T19:54:07.975Z,12.71
2017-11-15T19:56:09.741Z,12.73
2017-11-15T19:58:11.587Z,12.72
2017-11-15T20:00:13.339Z,12.72
2017-11-15T20:02:15.113Z,12.71
2017-11-15T20:04:17.062Z,12.70
2017-11-15T20:06:18.919Z,12.69
2017-11-15T20:08:20.880Z,12.70
2017-11-15T20:10:22.746Z,12.70
2017-11-15T20:12:24.523Z,12.68
2017-11-15T20:14:26.268Z,12.69
2017-11-15T20:16:28.133Z,12.69
2017-11-15T20:18:30.004Z,12.68
2017-11-15T20:20:31.870Z,12.67
2017-11-15T20:22:34.009Z,12.66
2017-11-15T20:24:35.752Z,12.64
2017-11-15T20:26:37.498Z,12.65
2017-11-15T20:28:39.465Z,12.64
2017-11-15T20:30:41.219Z,12.62
2017-11-15T20:32:43.079Z,12.60
2017-11-15T20:34:44.924Z,12.61
2017-11-15T20:36:46.602Z,12.60
2017-11-15T20:38:48.337Z,12.62
2017-11-15T20:40:50.117Z,12.60
2017-11-15T20:42:52.031Z,12.57
2017-11-15T20:44:53.809Z,12.59
2017-11-15T20:46:55.696Z,12.57
2017-11-15T20:48:57.539Z,12.55
2017-11-15T20:50:59.287Z,12.56
2017-11-15T20:53:01.143Z,12.54
2017-11-15T20:55:02.907Z,12.53
2017-11-15T20:57:04.657Z,12.52
2017-11-15T20:59:06.423Z,12.53
2017-11-15T21:01:08.272Z,12.51
2017-11-15T21:03:10.028Z,12.52
2017-11-15T21:05:12.143Z,12.51
2017-11-15T21:07:13.929Z,12.50
2017-11-15T21:09:15.597Z,12.49
2017-11-15T21:11:17.511Z,12.49
2017-11-15T21:13:19.525Z,12.47
2017-11-15T21:15:21.159Z,12.48
2017-11-15T21:17:22.933Z,12.47
2017-11-15T21:19:24.585Z,12.46
2017-11-15T21:21:26.328Z,12.46
2017-11-15T21:23:28.208Z,12.46
2017-11-15T21:25:30.048Z,12.47
2017-11-15T21:27:31.813Z,12.45
2017-11-15T21:29:33.579Z,12.44
2017-11-15T21:31:36.134Z,12.45
2017-11-15T21:33:37.912Z,12.45
2017-11-15T21:35:39.871Z,12.45
2017-11-15T21:37:42.920Z,12.41
2017-11-15T21:39:45.505Z,12.41
2017-11-15T21:41:47.262Z,12.41
2017-11-15T21:43:49.017Z,12.37
2017-11-15T21:45:50.785Z,12.36
2017-11-15T21:47:52.648Z,12.38
2017-11-15T21:49:54.478Z,12.36
2017-11-15T21:51:56.967Z,12.36
2017-11-15T21:53:58.726Z,12.37
2017-11-15T21:56:00.461Z,12.37
2017-11-15T21:58:02.147Z,12.36
2017-11-15T22:00:04.091Z,12.35
2017-11-15T22:02:05.858Z,12.33
2017-11-15T22:04:07.808Z,12.35
2017-11-15T22:06:09.790Z,12.32
2017-11-15T22:08:11.621Z,12.31
2017-11-15T22:10:13.406Z,12.34
2017-11-15T22:12:15.251Z,12.34
2017-11-15T22:14:17.197Z,12.32
2017-11-15T22:16:18.947Z,12.31
2017-11-15T22:18:20.870Z,12.30
2017-11-15T22:20:22.881Z,12.27
2017-11-15T22:22:24.619Z,12.26
2017-11-15T22:24:26.393Z,12.25
2017-11-15T22:26:28.251Z,12.27
2017-11-15T22:28:30.019Z,12.25
2017-11-15T22:30:31.859Z,12.23
2017-11-15T22:32:33.604Z,12.23
2017-11-15T22:34:35.285Z,12.21
2017-11-15T22:36:37.227Z,12.22
2017-11-15T22:38:39.013Z,12.22
2017-11-15T22:40:40.951Z,12.20
2017-11-15T22:42:42.694Z,12.21
2017-11-15T22:44:44.457Z,12.19
2017-11-15T22:46:46.250Z,12.17
2017-11-15T22:48:48.072Z,12.18
2017-11-15T22:50:49.925Z,12.19
2017-11-15T22:52:51.719Z,12.17
2017-11-15T22:54:53.631Z,12.16
2017-11-15T22:56:55.401Z,12.15
2017-11-15T22:58:57.262Z,12.16
2017-11-15T23:00:59.204Z,12.15
2017-11-15T23:03:00.971Z,12.14
2017-11-15T23:05:02.728Z,12.14
2017-11-15T23:07:04.586Z,12.13
2017-11-15T23:09:06.434Z,12.12
2017-11-15T23:11:08.181Z,12.11
2017-11-15T23:13:09.940Z,12.13
2017-11-15T23:15:11.701Z,12.11
2017-11-15T23:17:13.358Z,12.08
2017-11-15T23:19:15.205Z,12.09
2017-11-15T23:21:17.261Z,12.07
2017-11-15T23:23:19.239Z,12.07
2017-11-15T23:25:21.304Z,12.07
2017-11-15T23:27:23.071Z,12.06
2017-11-15T23:29:24.923Z,12.07
2017-11-15T23:31:26.872Z,12.05
2017-11-15T23:33:28.825Z,12.05
2017-11-15T23:35:30.558Z,12.05
2017-11-15T23:39:39.216Z,12.03
2017-11-15T23:41:40.970Z,12.01
2017-11-15T23:43:42.721Z,12.00
2017-11-15T23:45:44.377Z,12.01
2017-11-15T23:47:46.135Z,11.99
2017-11-15T23:49:48.916Z,12.01
2017-11-15T23:51:50.667Z,11.97
2017-11-15T23:53:52.313Z,11.99
2017-11-15T23:55:54.000Z,11.98
2017-11-15T23:57:55.668Z,11.98
2017-11-15T23:59:57.485Z,11.98
